createdAt,value
2019-06-10T00:02:17.719Z,1.10
2019-06-10T00:04:44.488Z,1.20
2019-06-10T00:07:11.880Z,1.10
2019-06-10T00:09:40.586Z,1.00
2019-06-10T00:12:07.690Z,1.40
2019-06-10T00:14:34.408Z,1.00
2019-06-10T00:17:01.950Z,1.17
2019-06-10T00:19:28.676Z,1.30
2019-06-10T00:21:54.885Z,1.13
2019-06-10T00:24:21.353Z,1.17
2019-06-10T00:26:47.824Z,1.23
2019-06-10T00:29:14.316Z,1.30
2019-06-10T00:31:41.752Z,1.00
2019-06-10T00:34:09.321Z,1.40
2019-06-10T00:36:36.295Z,1.30
2019-06-10T00:39:07.261Z,1.27
2019-06-10T00:41:34.202Z,1.23
2019-06-10T00:44:02.440Z,1.30
2019-06-10T00:46:28.468Z,1.20
2019-06-10T00:48:54.607Z,1.20
2019-06-10T00:51:21.117Z,1.30
2019-06-10T00:53:47.340Z,1.07
2019-06-10T00:56:14.473Z,1.73
2019-06-10T00:58:40.904Z,1.27
2019-06-10T01:01:07.954Z,1.27
2019-06-10T01:03:34.234Z,1.40
2019-06-10T01:06:01.604Z,1.23
2019-06-10T01:08:28.788Z,1.37
2019-06-10T01:10:55.214Z,1.27
2019-06-10T01:13:21.362Z,1.30
2019-06-10T01:15:47.505Z,1.57
2019-06-10T01:20:41.306Z,1.50
2019-06-10T01:23:07.669Z,1.17
2019-06-10T01:25:33.817Z,1.40
2019-06-10T01:28:00.588Z,1.43
2019-06-10T01:30:27.421Z,1.20
2019-06-10T01:32:53.701Z,1.10
2019-06-10T01:35:21.066Z,1.57
2019-06-10T01:37:47.724Z,1.50
2019-06-10T01:40:16.350Z,1.67
2019-06-10T01:42:42.338Z,1.40
2019-06-10T01:45:11.091Z,1.40
2019-06-10T01:47:36.863Z,1.47
2019-06-10T01:50:07.019Z,1.40
2019-06-10T01:52:33.631Z,2.00
2019-06-10T01:55:01.501Z,1.37
2019-06-10T01:57:27.954Z,1.63
2019-06-10T01:59:54.101Z,1.50
2019-06-10T02:02:23.960Z,1.30
2019-06-10T02:04:51.777Z,1.40
2019-06-10T02:07:18.826Z,1.37
2019-06-10T02:09:46.136Z,1.40
2019-06-10T02:12:15.892Z,1.70
2019-06-10T02:14:41.624Z,1.37
2019-06-10T02:17:07.926Z,1.37
2019-06-10T02:19:34.102Z,1.37
2019-06-10T02:22:01.308Z,1.60
2019-06-10T02:24:27.769Z,1.40
2019-06-10T02:26:53.942Z,1.40
2019-06-10T02:29:23.160Z,1.40
2019-06-10T02:31:51.372Z,1.10
2019-06-10T02:34:21.792Z,1.50
2019-06-10T02:36:44.813Z,1.67
2019-06-10T02:39:16.783Z,1.50
2019-06-10T02:41:39.198Z,1.60
2019-06-10T02:44:05.804Z,1.57
2019-06-10T02:46:36.030Z,1.60
2019-06-10T02:49:17.606Z,1.70
2019-06-10T02:51:31.567Z,1.40
2019-06-10T02:53:57.291Z,1.60
2019-06-10T02:56:30.013Z,1.50
2019-06-10T02:58:53.493Z,1.50
2019-06-10T03:01:21.693Z,1.60
2019-06-10T03:03:49.658Z,2.00
2019-06-10T03:06:17.967Z,1.57
2019-06-10T03:08:43.934Z,1.60
2019-06-10T03:11:10.120Z,1.73
2019-06-10T03:13:36.294Z,1.63
2019-06-10T03:16:13.702Z,1.60
2019-06-10T03:18:39.911Z,1.83
2019-06-10T03:21:06.060Z,1.90
2019-06-10T03:23:32.238Z,1.60
2019-06-10T03:26:00.010Z,1.50
2019-06-10T03:28:27.731Z,1.63
2019-06-10T03:30:58.806Z,1.80
2019-06-10T03:33:27.710Z,2.20
2019-06-10T03:35:52.314Z,1.70
2019-06-10T03:38:23.106Z,1.90
2019-06-10T03:40:48.708Z,1.57
2019-06-10T03:43:14.852Z,1.93
2019-06-10T03:45:42.594Z,1.40
2019-06-10T03:48:09.191Z,1.87
2019-06-10T03:50:35.634Z,1.73
2019-06-10T03:53:04.249Z,1.60
2019-06-10T03:55:29.838Z,1.77
2019-06-10T03:57:55.995Z,1.60
2019-06-10T04:00:25.424Z,1.70
2019-06-10T04:02:53.102Z,1.90
2019-06-10T04:05:19.436Z,1.60
2019-06-10T04:07:45.809Z,1.63
2019-06-10T04:10:12.666Z,1.80
2019-06-10T04:12:38.983Z,1.63
2019-06-10T04:15:05.548Z,1.77
2019-06-10T04:17:33.351Z,1.70
2019-06-10T04:20:09.453Z,1.50
2019-06-10T04:22:28.776Z,1.80
2019-06-10T04:24:54.939Z,1.80
2019-06-10T04:27:22.683Z,1.90
2019-06-10T04:29:49.468Z,1.80
2019-06-10T04:32:15.610Z,1.80
2019-06-10T04:34:43.292Z,1.57
2019-06-10T04:37:09.731Z,1.60
2019-06-10T04:39:36.312Z,1.70
2019-06-10T04:42:02.563Z,1.70
2019-06-10T04:44:29.405Z,1.87
2019-06-10T04:46:55.642Z,2.00
2019-06-10T04:49:25.041Z,1.57
2019-06-10T04:51:52.232Z,1.80
2019-06-10T04:54:18.687Z,1.80
2019-06-10T04:56:44.873Z,2.00
2019-06-10T04:59:12.466Z,1.90
2019-06-10T05:01:38.923Z,2.03
2019-06-10T05:04:05.396Z,1.57
2019-06-10T05:06:32.802Z,1.67
2019-06-10T05:08:59.121Z,1.73
2019-06-10T05:11:26.673Z,1.80
2019-06-10T05:13:53.509Z,1.70
2019-06-10T05:16:19.832Z,1.50
2019-06-10T05:18:46.039Z,1.90
2019-06-10T05:21:13.031Z,1.83
2019-06-10T05:23:39.675Z,1.70
2019-06-10T05:26:13.335Z,1.80
2019-06-10T05:28:47.081Z,1.97
2019-06-10T05:31:13.292Z,1.87
2019-06-10T05:33:42.978Z,2.00
2019-06-10T05:36:15.373Z,1.73
2019-06-10T05:38:43.511Z,1.87
2019-06-10T05:41:09.604Z,1.60
2019-06-10T05:43:35.809Z,1.70
2019-06-10T05:46:06.035Z,1.90
2019-06-10T05:48:33.670Z,1.90
2019-06-10T05:51:05.068Z,1.70
2019-06-10T05:53:29.246Z,1.90
2019-06-10T05:55:55.472Z,1.70
2019-06-10T05:58:23.548Z,1.90
2019-06-10T06:00:49.748Z,1.87
2019-06-10T06:03:15.906Z,1.97
2019-06-10T06:05:43.355Z,2.17
2019-06-10T06:08:09.597Z,2.07
2019-06-10T06:10:36.055Z,1.90
2019-06-10T06:13:03.080Z,1.87
2019-06-10T06:15:29.823Z,1.93
2019-06-10T06:18:07.188Z,1.70
2019-06-10T06:20:25.070Z,1.80
2019-06-10T06:22:52.245Z,2.00
2019-06-10T06:25:18.760Z,1.93
2019-06-10T06:27:45.368Z,2.17
2019-06-10T06:30:18.421Z,2.30
2019-06-10T06:32:43.603Z,1.80
2019-06-10T06:35:09.958Z,2.10
2019-06-10T06:37:39.717Z,2.20
2019-06-10T06:40:06.946Z,2.13
2019-06-10T06:42:35.058Z,1.87
2019-06-10T06:45:03.021Z,2.20
2019-06-10T06:47:29.877Z,1.90
2019-06-10T06:49:55.996Z,2.17
2019-06-10T06:52:46.457Z,1.87
2019-06-10T06:54:52.886Z,2.00
2019-06-10T06:57:18.823Z,2.17
2019-06-10T06:59:44.974Z,2.43
2019-06-10T07:02:12.351Z,2.40
2019-06-10T07:04:38.824Z,2.37
2019-06-10T07:07:04.969Z,1.90
2019-06-10T07:09:35.624Z,2.00
2019-06-10T07:12:03.703Z,1.97
2019-06-10T07:14:52.612Z,2.10
2019-06-10T07:17:19.158Z,2.27
2019-06-10T07:19:45.922Z,2.33
2019-06-10T07:22:15.905Z,2.40
2019-06-10T07:24:43.107Z,2.47
2019-06-10T07:27:08.429Z,2.10
2019-06-10T07:29:38.510Z,2.20
2019-06-10T07:32:03.474Z,2.40
2019-06-10T07:34:29.805Z,2.13
2019-06-10T07:36:56.238Z,2.00
2019-06-10T07:39:22.918Z,2.37
2019-06-10T07:41:49.300Z,2.33
2019-06-10T07:44:15.594Z,2.27
2019-06-10T07:46:45.216Z,2.60
2019-06-10T07:49:13.232Z,2.20
2019-06-10T07:51:39.339Z,2.30
2019-06-10T07:54:05.769Z,2.20
2019-06-10T07:56:37.232Z,2.20
2019-06-10T07:59:00.267Z,2.30
2019-06-10T08:01:26.479Z,2.27
2019-06-10T08:03:52.936Z,2.17
2019-06-10T08:06:19.211Z,2.27
2019-06-10T08:08:45.548Z,2.30
2019-06-10T08:11:13.565Z,2.47
2019-06-10T08:13:39.806Z,2.40
2019-06-10T08:16:05.968Z,2.33
2019-06-10T08:18:39.426Z,2.50
2019-06-10T08:21:00.232Z,2.33
2019-06-10T08:23:26.681Z,2.20
2019-06-10T08:25:57.228Z,2.50
2019-06-10T08:28:22.909Z,2.33
2019-06-10T08:30:49.198Z,2.20
2019-06-10T08:33:15.367Z,2.30
2019-06-10T08:35:48.574Z,2.83
2019-06-10T08:38:12.279Z,2.70
2019-06-10T08:40:38.445Z,2.70
2019-06-10T08:43:05.213Z,2.37
2019-06-10T08:45:33.314Z,2.37
2019-06-10T08:47:59.575Z,2.60
2019-06-10T08:50:26.217Z,2.50
2019-06-10T08:53:09.131Z,2.50
2019-06-10T08:55:22.799Z,2.53
2019-06-10T08:57:51.077Z,2.63
2019-06-10T09:00:18.736Z,2.50
2019-06-10T09:02:47.307Z,2.70
2019-06-10T09:05:18.457Z,2.47
2019-06-10T09:07:49.622Z,2.77
2019-06-10T09:10:16.354Z,2.37
2019-06-10T09:12:46.066Z,2.30
2019-06-10T09:15:12.928Z,2.33
2019-06-10T09:17:40.322Z,2.27
2019-06-10T09:20:08.932Z,2.60
2019-06-10T09:22:35.385Z,2.30
2019-06-10T09:25:07.219Z,2.20
2019-06-10T09:27:33.747Z,2.30
2019-06-10T09:29:59.910Z,2.60
2019-06-10T09:32:26.368Z,2.50
2019-06-10T09:34:57.306Z,2.30
2019-06-10T09:37:23.341Z,2.17
2019-06-10T09:39:55.927Z,2.23
2019-06-10T09:42:17.499Z,2.20
2019-06-10T09:44:46.834Z,2.10
2019-06-10T09:47:14.313Z,2.37
2019-06-10T09:49:43.993Z,2.03
2019-06-10T09:52:09.042Z,2.40
2019-06-10T09:54:35.195Z,2.30
2019-06-10T09:57:02.390Z,2.30
2019-06-10T09:59:28.868Z,2.23
2019-06-10T10:01:58.855Z,2.57
2019-06-10T10:04:23.718Z,2.47
2019-06-10T10:06:57.043Z,2.37
2019-06-10T10:09:23.175Z,2.20
2019-06-10T10:11:51.455Z,2.40
2019-06-10T10:14:17.599Z,2.50
2019-06-10T10:16:47.867Z,2.30
2019-06-10T10:19:13.054Z,2.60
2019-06-10T10:21:42.306Z,2.63
2019-06-10T10:24:12.311Z,2.20
2019-06-10T10:26:35.894Z,2.37
2019-06-10T10:29:03.126Z,2.23
2019-06-10T10:31:29.286Z,2.27
2019-06-10T10:33:55.425Z,2.30
2019-06-10T10:36:22.627Z,2.37
2019-06-10T10:38:49.033Z,2.47
2019-06-10T10:41:15.334Z,2.30
2019-06-10T10:43:44.869Z,2.40
2019-06-10T10:46:09.543Z,2.33
2019-06-10T10:48:35.725Z,2.00
2019-06-10T10:51:03.576Z,2.30
2019-06-10T10:53:32.567Z,2.47
2019-06-10T10:55:58.034Z,2.03
2019-06-10T10:58:24.209Z,2.30
2019-06-10T11:00:54.530Z,2.30
2019-06-10T11:03:18.723Z,2.03
2019-06-10T11:05:48.113Z,2.70
2019-06-10T11:08:14.322Z,2.27
2019-06-10T11:10:43.885Z,2.40
2019-06-10T11:13:10.188Z,2.23
2019-06-10T11:15:36.327Z,2.67
2019-06-10T11:18:05.139Z,2.90
2019-06-10T11:20:33.529Z,2.33
2019-06-10T11:22:59.722Z,2.60
2019-06-10T11:25:25.870Z,3.30
2019-06-10T11:27:53.015Z,2.73
2019-06-10T11:30:20.689Z,2.60
2019-06-10T11:32:47.939Z,2.47
2019-06-10T11:35:14.314Z,2.47
2019-06-10T11:37:42.310Z,2.67
2019-06-10T11:40:09.519Z,2.30
2019-06-10T11:42:35.694Z,2.60
2019-06-10T11:45:06.957Z,2.47
2019-06-10T11:47:33.129Z,2.73
2019-06-10T11:49:59.604Z,2.30
2019-06-10T11:52:25.784Z,2.47
2019-06-10T11:55:05.432Z,2.33
2019-06-10T11:57:20.344Z,2.37
2019-06-10T11:59:46.489Z,2.60
2019-06-10T12:02:13.218Z,2.67
2019-06-10T12:04:39.617Z,2.50
2019-06-10T12:07:26.055Z,2.27
2019-06-10T12:09:55.297Z,2.60
2019-06-10T12:12:22.042Z,2.13
2019-06-10T12:14:49.335Z,2.23
2019-06-10T12:17:31.329Z,2.77
2019-06-10T12:19:43.654Z,2.63
2019-06-10T12:22:10.137Z,2.50
2019-06-10T12:24:36.318Z,2.63
2019-06-10T12:27:05.037Z,2.17
2019-06-10T12:29:31.578Z,2.37
2019-06-10T12:32:01.304Z,2.57
2019-06-10T12:34:25.829Z,2.30
2019-06-10T12:36:56.203Z,2.10
2019-06-10T12:39:22.901Z,2.40
2019-06-10T12:41:48.689Z,2.50
2019-06-10T12:44:14.870Z,2.43
2019-06-10T12:46:43.113Z,2.70
2019-06-10T12:49:09.241Z,2.57
2019-06-10T12:51:35.679Z,2.70
2019-06-10T12:54:04.833Z,2.20
2019-06-10T12:56:29.894Z,2.23
2019-06-10T12:58:57.744Z,2.33
2019-06-10T13:01:24.117Z,2.30
2019-06-10T13:03:52.860Z,2.60
2019-06-10T13:06:18.675Z,2.30
2019-06-10T13:08:46.374Z,2.30
2019-06-10T13:11:13.263Z,2.53
2019-06-10T13:14:00.034Z,2.43
2019-06-10T13:16:27.724Z,2.50
2019-06-10T13:18:54.014Z,2.03
2019-06-10T13:21:22.581Z,2.53
2019-06-10T13:23:48.304Z,2.47
2019-06-10T13:26:16.670Z,2.40
2019-06-10T13:28:44.325Z,2.73
2019-06-10T13:31:10.763Z,2.27
2019-06-10T13:33:36.958Z,2.70
2019-06-10T13:36:06.389Z,2.43
2019-06-10T13:38:33.202Z,2.40
2019-06-10T13:40:59.591Z,2.13
2019-06-10T13:43:25.889Z,2.40
2019-06-10T13:45:53.148Z,2.43
2019-06-10T13:48:20.103Z,2.43
2019-06-10T13:50:46.309Z,2.77
2019-06-10T13:53:13.535Z,2.37
2019-06-10T13:55:39.870Z,2.33
2019-06-10T13:58:08.345Z,2.60
2019-06-10T14:00:45.761Z,3.07
2019-06-10T14:03:05.076Z,2.17
2019-06-10T14:05:34.054Z,2.30
2019-06-10T14:07:58.496Z,2.33
2019-06-10T14:10:24.666Z,2.50
2019-06-10T14:12:52.620Z,2.27
2019-06-10T14:15:19.128Z,2.07
2019-06-10T14:17:46.587Z,1.90
2019-06-10T14:20:15.490Z,2.10
2019-06-10T14:22:42.598Z,2.33
2019-06-10T14:25:11.574Z,2.00
2019-06-10T14:27:38.590Z,2.33
2019-06-10T14:30:07.863Z,2.30
2019-06-10T14:32:34.430Z,2.00
2019-06-10T14:35:00.635Z,2.30
2019-06-10T14:37:38.143Z,2.17
2019-06-10T14:39:54.877Z,2.27
2019-06-10T14:42:23.044Z,2.00
2019-06-10T14:44:49.083Z,2.13
2019-06-10T14:47:16.409Z,2.53
2019-06-10T14:49:43.137Z,2.10
2019-06-10T14:52:09.306Z,2.00
2019-06-10T14:54:35.788Z,2.20
2019-06-10T14:57:02.659Z,2.70
2019-06-10T14:59:29.034Z,2.27
2019-06-10T15:01:55.197Z,2.40
2019-06-10T15:04:22.519Z,2.43
2019-06-10T15:06:49.029Z,2.17
2019-06-10T15:09:15.746Z,2.20
2019-06-10T15:11:42.808Z,2.30
2019-06-10T15:14:09.894Z,2.67
2019-06-10T15:16:37.207Z,2.47
2019-06-10T15:19:14.770Z,2.20
2019-06-10T15:21:32.402Z,2.30
2019-06-10T15:23:58.669Z,2.33
2019-06-10T15:26:24.833Z,2.20
2019-06-10T15:28:52.226Z,2.30
2019-06-10T15:31:19.567Z,2.40
2019-06-10T15:33:45.811Z,2.33
2019-06-10T15:36:13.191Z,2.47
2019-06-10T15:38:39.569Z,2.63
2019-06-10T15:41:05.720Z,2.27
2019-06-10T15:43:33.085Z,2.70
2019-06-10T15:45:59.408Z,2.00
2019-06-10T15:48:25.689Z,2.80
2019-06-10T15:50:51.872Z,2.23
2019-06-10T15:53:20.381Z,2.47
2019-06-10T15:56:09.282Z,2.07
2019-06-10T15:58:15.622Z,2.53
2019-06-10T16:00:42.678Z,2.40
2019-06-10T16:03:09.280Z,2.40
2019-06-10T16:05:35.472Z,2.20
2019-06-10T16:08:02.158Z,2.37
2019-06-10T16:10:28.482Z,2.27
2019-06-10T16:12:54.624Z,2.23
2019-06-10T16:15:24.393Z,2.30
2019-06-10T16:17:49.042Z,2.13
2019-06-10T16:20:16.450Z,2.53
2019-06-10T16:22:43.265Z,2.23
2019-06-10T16:25:09.598Z,2.30
2019-06-10T16:27:47.186Z,2.20
2019-06-10T16:30:07.961Z,2.03
2019-06-10T16:32:34.134Z,2.00
2019-06-10T16:35:00.564Z,2.23
2019-06-10T16:37:27.093Z,1.70
2019-06-10T16:39:53.381Z,2.00
2019-06-10T16:42:19.577Z,1.97
2019-06-10T16:44:45.865Z,1.80
2019-06-10T16:47:12.637Z,2.20
2019-06-10T16:49:38.902Z,1.90
2019-06-10T16:52:05.063Z,2.00
2019-06-10T16:54:33.029Z,1.90
2019-06-10T16:56:59.279Z,2.20
2019-06-10T16:59:26.252Z,1.80
2019-06-10T17:01:53.516Z,1.77
2019-06-10T17:04:19.975Z,1.90
2019-06-10T17:06:46.155Z,1.90
2019-06-10T17:09:13.500Z,2.00
2019-06-10T17:11:42.371Z,1.77
2019-06-10T17:14:07.957Z,2.10
2019-06-10T17:16:34.188Z,1.97
2019-06-10T17:19:02.405Z,1.90
2019-06-10T17:21:31.676Z,2.20
2019-06-10T17:23:56.453Z,1.80
2019-06-10T17:26:29.435Z,2.00
2019-06-10T17:28:52.142Z,2.20
2019-06-10T17:31:19.703Z,1.97
2019-06-10T17:33:46.884Z,2.30
2019-06-10T17:36:13.029Z,2.07
2019-06-10T17:38:39.450Z,1.97
2019-06-10T17:41:05.734Z,1.70
2019-06-10T17:43:33.986Z,2.10
2019-06-10T17:46:00.182Z,2.03
2019-06-10T17:48:27.936Z,2.03
2019-06-10T17:50:54.727Z,2.33
2019-06-10T17:53:22.282Z,2.30
2019-06-10T17:55:48.754Z,1.87
2019-06-10T17:58:14.903Z,1.73
2019-06-10T18:00:42.178Z,2.13
2019-06-10T18:03:08.633Z,2.17
2019-06-10T18:05:34.791Z,2.30
2019-06-10T18:08:02.309Z,2.20
2019-06-10T18:10:29.800Z,2.50
2019-06-10T18:12:56.266Z,2.60
2019-06-10T18:15:22.403Z,2.50
2019-06-10T18:17:48.585Z,2.23
2019-06-10T18:20:15.763Z,2.43
2019-06-10T18:22:41.931Z,1.97
2019-06-10T18:25:08.986Z,2.17
2019-06-10T18:27:36.644Z,2.20
2019-06-10T18:30:13.306Z,2.40
2019-06-10T18:32:37.460Z,2.80
2019-06-10T18:35:05.447Z,2.53
2019-06-10T18:37:34.523Z,2.20
2019-06-10T18:39:59.674Z,2.57
2019-06-10T18:42:26.480Z,2.37
2019-06-10T18:44:52.800Z,2.47
2019-06-10T18:47:18.958Z,2.43
2019-06-10T18:49:45.133Z,2.40
2019-06-10T18:52:12.709Z,2.40
2019-06-10T18:54:40.032Z,2.50
2019-06-10T18:57:06.279Z,1.90
2019-06-10T18:59:34.602Z,2.10
2019-06-10T19:02:05.938Z,1.93
2019-06-10T19:04:28.641Z,2.20
2019-06-10T19:06:54.781Z,2.40
2019-06-10T19:09:20.949Z,2.30
2019-06-10T19:11:47.096Z,1.80
2019-06-10T19:14:13.300Z,2.27
2019-06-10T19:16:40.163Z,2.40
2019-06-10T19:19:06.534Z,2.23
2019-06-10T19:21:34.208Z,2.00
2019-06-10T19:24:03.089Z,1.90
2019-06-10T19:26:28.706Z,2.10
2019-06-10T19:28:57.360Z,1.73
2019-06-10T19:31:23.120Z,1.73
2019-06-10T19:33:49.266Z,2.03
2019-06-10T19:36:15.451Z,2.27
2019-06-10T19:38:44.054Z,2.27
2019-06-10T19:41:09.979Z,2.17
2019-06-10T19:43:38.189Z,2.33
2019-06-10T19:46:07.253Z,2.00
2019-06-10T19:48:37.731Z,2.17
2019-06-10T19:51:03.086Z,2.30
2019-06-10T19:53:29.365Z,2.53
2019-06-10T19:55:55.552Z,2.53
2019-06-10T19:58:23.205Z,2.47
2019-06-10T20:00:53.532Z,2.27
2019-06-10T20:03:17.748Z,2.50
2019-06-10T20:05:46.804Z,2.57
2019-06-10T20:08:12.692Z,2.20
2019-06-10T20:10:40.122Z,2.63
2019-06-10T20:13:06.442Z,2.50
2019-06-10T20:15:32.845Z,2.30
2019-06-10T20:17:59.242Z,2.40
2019-06-10T20:20:25.426Z,2.43
2019-06-10T20:22:53.338Z,3.03
2019-06-10T20:25:22.245Z,3.10
2019-06-10T20:27:48.231Z,2.20
2019-06-10T20:30:25.366Z,2.57
2019-06-10T20:32:47.883Z,1.70
2019-06-10T20:35:13.952Z,1.60
2019-06-10T20:37:40.093Z,1.97
2019-06-10T20:40:06.853Z,1.50
2019-06-10T20:42:33.120Z,1.53
2019-06-10T20:44:59.263Z,1.77
2019-06-10T20:47:26.023Z,2.00
2019-06-10T20:49:56.010Z,1.80
2019-06-10T20:52:22.201Z,1.53
2019-06-10T20:54:50.069Z,1.77
2019-06-10T20:57:16.309Z,1.80
2019-06-10T20:59:46.152Z,1.60
2019-06-10T21:02:13.432Z,1.67
2019-06-10T21:04:39.297Z,2.23
2019-06-10T21:07:06.991Z,1.90
2019-06-10T21:09:33.802Z,1.90
2019-06-10T21:12:02.107Z,2.17
2019-06-10T21:14:28.396Z,1.73
2019-06-10T21:16:54.573Z,1.83
2019-06-10T21:19:23.093Z,1.77
2019-06-10T21:21:50.356Z,2.03
2019-06-10T21:24:16.919Z,1.53
2019-06-10T21:26:56.918Z,1.57
2019-06-10T21:29:23.071Z,1.30
2019-06-10T21:31:55.745Z,1.70
2019-06-10T21:34:22.403Z,1.73
2019-06-10T21:36:49.410Z,1.77
2019-06-10T21:39:15.610Z,1.60
2019-06-10T21:41:42.553Z,1.53
2019-06-10T21:44:09.854Z,1.90
2019-06-10T21:46:36.016Z,1.73
2019-06-10T21:49:02.162Z,1.50
2019-06-10T21:51:31.510Z,1.57
2019-06-10T21:53:56.645Z,1.60
2019-06-10T21:56:22.813Z,1.43
2019-06-10T21:58:48.964Z,1.50
2019-06-10T22:01:17.119Z,1.40
2019-06-10T22:03:45.569Z,1.40
2019-06-10T22:06:12.319Z,1.20
2019-06-10T22:08:38.962Z,1.40
2019-06-10T22:11:05.591Z,1.30
2019-06-10T22:13:32.872Z,1.40
2019-06-10T22:15:59.454Z,1.20
2019-06-10T22:18:25.606Z,1.43
2019-06-10T22:20:56.017Z,1.40
2019-06-10T22:23:23.044Z,1.20
2019-06-10T22:25:48.859Z,1.10
2019-06-10T22:28:15.094Z,0.97
2019-06-10T22:30:43.314Z,1.23
2019-06-10T22:33:09.325Z,1.30
2019-06-10T22:35:35.464Z,1.40
2019-06-10T22:38:02.494Z,1.43
2019-06-10T22:40:29.239Z,1.60
2019-06-10T22:42:56.692Z,1.57
2019-06-10T22:45:23.027Z,1.50
2019-06-10T22:47:49.717Z,1.60
2019-06-10T22:50:17.084Z,1.47
2019-06-10T22:52:43.859Z,1.40
2019-06-10T22:55:12.834Z,1.53
2019-06-10T22:57:38.685Z,1.23
2019-06-10T23:00:07.154Z,1.40
2019-06-10T23:02:33.434Z,1.60
2019-06-10T23:05:02.618Z,1.33
2019-06-10T23:07:27.777Z,1.47
2019-06-10T23:09:55.734Z,1.40
2019-06-10T23:12:22.032Z,1.53
2019-06-10T23:14:48.664Z,1.33
2019-06-10T23:17:14.944Z,1.23
2019-06-10T23:19:42.728Z,1.40
2019-06-10T23:22:09.113Z,1.57
2019-06-10T23:24:35.269Z,1.50
2019-06-10T23:27:03.106Z,1.70
2019-06-10T23:29:32.097Z,1.60
2019-06-10T23:32:03.457Z,1.90
2019-06-10T23:34:26.159Z,1.53
2019-06-10T23:36:54.835Z,1.60
2019-06-10T23:39:22.597Z,1.43
2019-06-10T23:41:48.710Z,1.80
2019-06-10T23:44:14.889Z,1.47
2019-06-10T23:46:42.567Z,1.37
2019-06-10T23:49:08.813Z,1.60
2019-06-10T23:51:35.052Z,1.50
2019-06-10T23:54:04.609Z,1.40
2019-06-10T23:56:29.284Z,1.43
2019-06-10T23:58:57.489Z,1.30
